Euskara    
Meteorología y climatología de Navarra
Datos de la estación - Meteo Navarra

Estación de Getadar GN

Altitud 710 m.


Datos desde el 08/04/2021 hasta el 09/04/2021 en horario solar
Los datos son PROVISIONALES

Anterior Página 1 de 1 Siguiente Descargar: Formato para Excel 2000 o superior   Formato csv   Formato para OpenOffice Calc
Fecha Temperatura Humedad relativa Radiación global Insolación Precipitación Vel. viento 10 m Vel. viento 10 m Dir. viento 10 m
°C % W/m² s l/m² m/s km/h °
08/04/2021 0:00 3.9 63 0.0 0 0.0 1.2 4.3 132
08/04/2021 0:10 3.7 65 0.0 0 0.0 1.2 4.3 135
08/04/2021 0:20 3.6 66 0.0 0 0.0 1.2 4.4 137
08/04/2021 0:30 3.6 67 0.0 0 0.0 1.1 4.0 134
08/04/2021 0:40 3.7 67 0.0 0 0.0 1.3 4.7 140
08/04/2021 0:50 3.8 68 0.0 0 0.0 1.1 3.8 143
08/04/2021 1:00 3.7 71 0.0 0 0.0 1.1 3.8 146
08/04/2021 1:10 3.7 72 0.0 0 0.0 1.1 4.1 143
08/04/2021 1:20 3.9 73 0.0 0 0.0 1.3 4.6 153
08/04/2021 1:30 4.0 74 0.0 0 0.0 1.2 4.3 157
08/04/2021 1:40 3.8 76 0.0 0 0.0 1.2 4.2 155
08/04/2021 1:50 3.7 77 0.0 0 0.0 1.2 4.4 157
08/04/2021 2:00 3.8 78 0.0 0 0.0 1.3 4.7 156
08/04/2021 2:10 3.7 78 0.0 0 0.0 1.3 4.7 154
08/04/2021 2:20 3.6 79 0.0 0 0.0 1.2 4.2 157
08/04/2021 2:30 3.3 80 0.0 0 0.0 1.0 3.6 156
08/04/2021 2:40 3.4 81 0.0 0 0.0 1.3 4.8 161
08/04/2021 2:50 3.5 81 0.0 0 0.0 2.0 7.0 177
08/04/2021 3:00 2.9 82 0.0 0 0.0 1.1 4.0 166
08/04/2021 3:10 2.9 84 0.0 0 0.0 1.1 3.8 163
08/04/2021 3:20 2.9 85 0.0 0 0.0 1.1 4.0 164
08/04/2021 3:30 2.8 86 0.0 0 0.0 1.1 4.1 163
08/04/2021 3:40 2.7 86 0.0 0 0.0 0.7 2.7 159
08/04/2021 3:50 2.5 86 0.0 0 0.0 0.3 1.2 153
08/04/2021 4:00 2.5 86 0.0 0 0.0 0.6 2.0 157
08/04/2021 4:10 2.6 85 0.0 0 0.0 0.7 2.5 159
08/04/2021 4:20 2.5 85 0.0 0 0.0 0.9 3.3 171
08/04/2021 4:30 2.3 84 0.0 0 0.0 0.8 2.7 159
08/04/2021 4:40 2.2 85 0.0 0 0.0 0.6 2.3 157
08/04/2021 4:50 2.2 84 0.0 0 0.0 1.0 3.5 143
08/04/2021 5:00 2.1 85 0.0 0 0.0 1.2 4.1 141
08/04/2021 5:10 1.8 86 0.0 0 0.0 1.0 3.7 128
08/04/2021 5:20 1.5 87 0.0 0 0.0 0.7 2.6 129
08/04/2021 5:30 1.3 88 0.0 0 0.0 0.4 1.3 132
08/04/2021 5:40 1.2 89 1.6 0 0.0 0.0 0.1 140
08/04/2021 5:50 0.9 89 19.8 0 0.0 0.0 0.0 128
08/04/2021 6:00 0.9 91 27.9 154 0.0 0.1 0.3 134
08/04/2021 6:10 1.4 91 34.2 132 0.0 0.3 1.2 155
08/04/2021 6:20 1.9 89 46.9 178 0.0 0.3 1.0 144
08/04/2021 6:30 2.5 89 55.2 0 0.0 0.6 2.0 152
08/04/2021 6:40 2.8 88 73.9 0 0.0 0.3 0.9 152
08/04/2021 6:50 2.9 88 90.8 32 0.0 0.4 1.3 134
08/04/2021 7:00 3.2 87 106.6 16 0.0 1.0 3.6 140
08/04/2021 7:10 3.5 86 115.2 28 0.0 1.3 4.6 149
08/04/2021 7:20 3.7 86 120.8 0 0.0 1.2 4.5 151
08/04/2021 7:30 4.1 85 135.7 0 0.0 1.2 4.4 154
08/04/2021 7:40 4.4 83 149.2 0 0.0 1.3 4.8 148
08/04/2021 7:50 4.5 81 149.4 0 0.0 1.6 5.7 146
08/04/2021 8:00 4.7 80 182.5 0 0.0 1.7 5.9 145
08/04/2021 8:10 5.2 79 206.7 0 0.0 1.6 5.8 149
08/04/2021 8:20 5.6 77 211.0 0 0.0 2.0 7.0 145
08/04/2021 8:30 5.8 75 194.9 0 0.0 1.8 6.4 143
08/04/2021 8:40 6.2 75 185.8 0 0.0 2.0 7.3 161
08/04/2021 8:50 6.0 75 191.1 0 0.0 3.8 13.5 171
08/04/2021 9:00 6.3 75 224.0 0 0.0 3.6 12.9 169
08/04/2021 9:10 6.4 75 224.5 0 0.0 4.4 15.7 171
08/04/2021 9:20 6.6 74 250.1 0 0.0 4.2 15.0 169
08/04/2021 9:30 7.0 73 268.9 0 0.0 3.9 14.1 167
08/04/2021 9:40 7.4 72 300.7 0 0.0 2.2 7.9 163
08/04/2021 9:50 8.0 71 318.7 0 0.0 2.5 9.1 163
08/04/2021 10:00 8.0 70 332.5 26 0.0 2.6 9.2 157
08/04/2021 10:10 8.7 69 476.3 572 0.0 1.8 6.6 140
08/04/2021 10:20 9.1 67 453.0 364 0.0 2.5 9.1 152
08/04/2021 10:30 8.9 68 395.7 324 0.0 2.8 10.1 155
08/04/2021 10:40 8.9 68 397.1 152 0.0 3.0 10.7 161
08/04/2021 10:50 9.4 67 442.3 394 0.0 2.5 8.9 168
08/04/2021 11:00 9.7 66 497.4 600 0.0 2.2 7.9 152
08/04/2021 11:10 10.2 65 681.2 600 0.0 3.6 12.9 166
08/04/2021 11:20 10.4 65 565.0 586 0.0 2.8 10.0 166
08/04/2021 11:30 10.6 64 605.1 506 0.0 3.3 11.8 167
08/04/2021 11:40 10.8 63 642.6 600 0.0 3.8 13.6 167
08/04/2021 11:50 11.0 62 676.1 600 0.0 3.7 13.4 170
08/04/2021 12:00 11.4 62 759.0 594 0.0 3.2 11.4 162
08/04/2021 12:10 11.6 61 632.9 538 0.0 2.7 9.9 168
08/04/2021 12:20 11.6 61 653.9 600 0.0 2.9 10.6 164
08/04/2021 12:30 11.8 60 733.7 582 0.0 3.9 13.9 171
08/04/2021 12:40 12.0 60 815.0 566 0.0 4.0 14.2 172
08/04/2021 12:50 12.4 59 753.9 600 0.0 3.8 13.7 172
08/04/2021 13:00 12.6 59 863.0 600 0.0 2.5 8.9 167
08/04/2021 13:10 13.3 57 814.0 600 0.0 3.4 12.3 173
08/04/2021 13:20 12.8 58 697.7 600 0.0 3.2 11.4 176
08/04/2021 13:30 13.0 57 665.1 600 0.0 3.4 12.1 169
08/04/2021 13:40 13.2 57 545.7 412 0.0 2.9 10.5 175
08/04/2021 13:50 12.8 57 652.8 488 0.0 3.6 12.9 179
08/04/2021 14:00 13.7 56 836.0 600 0.0 3.6 13.0 175
08/04/2021 14:10 13.5 56 625.4 600 0.0 4.2 15.0 175
08/04/2021 14:20 13.5 57 620.0 600 0.0 2.9 10.5 173
08/04/2021 14:30 13.4 56 522.5 600 0.0 2.8 9.9 163
08/04/2021 14:40 13.4 57 425.4 526 0.0 3.2 11.4 168
08/04/2021 14:50 13.4 56 566.7 548 0.0 3.2 11.4 173
08/04/2021 15:00 14.0 54 725.3 600 0.0 3.4 12.1 173
08/04/2021 15:10 14.2 54 625.5 600 0.0 3.7 13.4 168
08/04/2021 15:20 14.0 54 541.2 600 0.0 3.6 12.9 182
08/04/2021 15:30 14.2 54 588.3 600 0.0 2.9 10.3 165
08/04/2021 15:40 14.5 52 557.4 600 0.0 2.6 9.5 167
08/04/2021 15:50 14.6 53 508.3 600 0.0 2.4 8.6 174
08/04/2021 16:00 14.7 52 475.1 600 0.0 2.2 8.0 162
08/04/2021 16:10 14.8 52 433.5 600 0.0 1.5 5.3 157
08/04/2021 16:20 14.8 51 408.3 600 0.0 2.9 10.4 173
08/04/2021 16:30 14.3 52 377.6 600 0.0 2.9 10.3 173
08/04/2021 16:40 14.6 52 341.9 600 0.0 2.7 9.5 184
08/04/2021 16:50 14.4 53 284.7 600 0.0 1.8 6.6 170
08/04/2021 17:00 14.5 52 272.7 600 0.0 2.1 7.6 175
08/04/2021 17:10 14.3 52 239.8 600 0.0 2.4 8.5 192
08/04/2021 17:20 14.2 53 202.9 600 0.0 2.9 10.4 190
08/04/2021 17:30 13.8 55 78.5 62 0.0 2.9 10.4 184
08/04/2021 17:40 13.3 57 55.6 0 0.0 2.3 8.4 189
08/04/2021 17:50 13.0 59 52.8 0 0.0 2.5 9.0 190
08/04/2021 18:00 12.8 60 49.3 0 0.0 2.1 7.6 179
08/04/2021 18:10 12.8 60 35.6 0 0.0 1.9 6.9 180
08/04/2021 18:20 12.7 60 24.1 0 0.0 1.1 3.9 195
08/04/2021 18:30 12.4 61 11.9 0 0.0 0.9 3.3 206
08/04/2021 18:40 12.5 61 0.0 0 0.0 0.5 1.9 200
08/04/2021 18:50 12.2 62 0.0 0 0.0 0.1 0.3 182
08/04/2021 19:00 11.9 64 0.0 0 0.0 0.3 1.2 327
08/04/2021 19:10 11.6 66 0.0 0 0.0 0.7 2.4 325
08/04/2021 19:20 11.7 65 0.0 0 0.0 0.0 0.1 293
08/04/2021 19:30 11.8 64 0.0 0 0.0 0.0 0.0 0
08/04/2021 19:40 11.3 67 0.0 0 0.0 0.2 0.7 111
08/04/2021 19:50 11.5 65 0.0 0 0.0 0.1 0.2 151
08/04/2021 20:00 11.1 68 0.0 0 0.0 0.3 0.9 158
08/04/2021 20:10 11.3 67 0.0 0 0.0 1.0 3.6 159
08/04/2021 20:20 11.7 65 0.0 0 0.0 1.2 4.4 162
08/04/2021 20:30 11.6 65 0.0 0 0.0 1.1 3.9 165
08/04/2021 20:40 11.2 67 0.0 0 0.0 0.7 2.4 154
08/04/2021 20:50 10.9 67 0.0 0 0.0 0.7 2.6 161
08/04/2021 21:00 11.4 65 0.0 0 0.0 1.5 5.4 181
08/04/2021 21:10 11.4 64 0.0 0 0.0 1.5 5.3 163
08/04/2021 21:20 11.1 66 0.0 0 0.0 1.8 6.4 166
08/04/2021 21:30 10.9 66 0.0 0 0.0 1.6 5.9 163
08/04/2021 21:40 10.6 67 0.0 0 0.0 1.3 4.6 155
08/04/2021 21:50 10.3 68 0.0 0 0.0 1.6 5.8 161
08/04/2021 22:00 10.2 69 0.0 0 0.0 1.9 6.8 172
08/04/2021 22:10 10.3 68 0.0 0 0.0 2.0 7.1 191
08/04/2021 22:20 10.3 68 0.0 0 0.0 0.8 2.9 200
08/04/2021 22:30 10.2 68 0.0 0 0.0 0.7 2.6 231
08/04/2021 22:40 10.1 69 0.0 0 0.0 0.5 1.7 155
08/04/2021 22:50 10.1 69 0.0 0 0.0 0.5 1.9 197
08/04/2021 23:00 9.8 70 0.0 0 0.0 1.8 6.5 181
08/04/2021 23:10 9.5 72 0.0 0 0.0 3.8 13.8 189
08/04/2021 23:20 9.3 72 0.0 0 0.0 3.5 12.4 201
08/04/2021 23:30 9.2 73 0.0 0 0.0 2.8 10.0 199
08/04/2021 23:40 9.1 74 0.0 0 0.0 0.8 3.0 176
08/04/2021 23:50 8.9 75 0.0 0 0.0 0.4 1.5 126
Anterior Página 1 de 1 Siguiente

NOTA: Tipo de datos según el color:
   - Valores diarios o 10 minutos correctos
   - Valores diarios calculados a partir de un número de datos 10 minutos menor que 144 y mayor que 120, o de un número de datos semihorarios menor que 48 y mayor que 40 (caso de las estaciones de INTIA Y Ministerio)
   - Valores diez minutos estimados


Contacto        Enlaces        Aviso legal